Aviation Digital Data Service (ADDS)

Output produced by METARs form (2302 UTC 23 March 2019)
found at http://www.aviationweather.gov/metar/data/
 
METAR text: MZBZ 232300Z 09007KT 9999 FEW028 28/18 A3002 Q1016 NOSIG
Conditions at: MZBZ (BELIZE INTL , BZ) observed 2300 UTC 23 March 2019
Temperature: 28.0°C (82°F)
Dewpoint: 18.0°C (64°F) [RH = 55%]
Pressure (altimeter): 30.00 inches Hg (1016.0 mb)
Winds: from the E (90 degrees) at 8 MPH (7 knots; 3.6 m/s)
Visibility: 6 or more miles (10+ km)
Ceiling: at least 12,000 feet AGL
Clouds: few clouds at 2800 feet AGL
Weather: no significant weather observed at this time

METAR text: MZBZ 232200Z 08007KT 9999 FEW028 28/17 A3002 Q1016 NOSIG
Conditions at: MZBZ (BELIZE INTL , BZ) observed 2200 UTC 23 March 2019
Temperature: 28.0°C (82°F)
Dewpoint: 17.0°C (63°F) [RH = 51%]
Pressure (altimeter): 30.00 inches Hg (1016.0 mb)
Winds: from the E (80 degrees) at 8 MPH (7 knots; 3.6 m/s)
Visibility: 6 or more miles (10+ km)
Ceiling: at least 12,000 feet AGL
Clouds: few clouds at 2800 feet AGL
Weather: no significant weather observed at this time

METAR text: MZBZ 232100Z 07007KT 9999 FEW028 28/18 A3003 Q1017 NOSIG
Conditions at: MZBZ (BELIZE INTL , BZ) observed 2100 UTC 23 March 2019
Temperature: 28.0°C (82°F)
Dewpoint: 18.0°C (64°F) [RH = 55%]
Pressure (altimeter): 30.03 inches Hg (1017.0 mb)
Winds: from the ENE (70 degrees) at 8 MPH (7 knots; 3.6 m/s)
Visibility: 6 or more miles (10+ km)
Ceiling: at least 12,000 feet AGL
Clouds: few clouds at 2800 feet AGL
Weather: no significant weather observed at this time

METAR text: MZBZ 232000Z 07007KT 9999 FEW029 29/18 A3005 Q1017 NOSIG
Conditions at: MZBZ (BELIZE INTL , BZ) observed 2000 UTC 23 March 2019
Temperature: 29.0°C (84°F)
Dewpoint: 18.0°C (64°F) [RH = 52%]
Pressure (altimeter): 30.03 inches Hg (1017.0 mb)
Winds: from the ENE (70 degrees) at 8 MPH (7 knots; 3.6 m/s)
Visibility: 6 or more miles (10+ km)
Ceiling: at least 12,000 feet AGL
Clouds: few clouds at 2900 feet AGL
Weather: no significant weather observed at this time

METAR text: MZBZ 231900Z 06010KT 9999 FEW029 28/18 A3006 Q1018 NOSIG
Conditions at: MZBZ (BELIZE INTL , BZ) observed 1900 UTC 23 March 2019
Temperature: 28.0°C (82°F)
Dewpoint: 18.0°C (64°F) [RH = 55%]
Pressure (altimeter): 30.06 inches Hg (1018.0 mb)
Winds: from the ENE (60 degrees) at 12 MPH (10 knots; 5.1 m/s)
Visibility: 6 or more miles (10+ km)
Ceiling: at least 12,000 feet AGL
Clouds: few clouds at 2900 feet AGL
Weather: no significant weather observed at this time

METAR text: MZBZ 231800Z 07010KT 9999 FEW028 28/19 A3008 Q1018 NOSIG
Conditions at: MZBZ (BELIZE INTL , BZ) observed 1800 UTC 23 March 2019
Temperature: 28.0°C (82°F)
Dewpoint: 19.0°C (66°F) [RH = 58%]
Pressure (altimeter): 30.06 inches Hg (1018.0 mb)
Winds: from the ENE (70 degrees) at 12 MPH (10 knots; 5.1 m/s)
Visibility: 6 or more miles (10+ km)
Ceiling: at least 12,000 feet AGL
Clouds: few clouds at 2800 feet AGL
Weather: no significant weather observed at this time

METAR text: MZBZ 231700Z 08009KT 9999 FEW027 29/19 A3010 Q1019 NOSIG
Conditions at: MZBZ (BELIZE INTL , BZ) observed 1700 UTC 23 March 2019
Temperature: 29.0°C (84°F)
Dewpoint: 19.0°C (66°F) [RH = 55%]
Pressure (altimeter): 30.09 inches Hg (1019.0 mb)
Winds: from the E (80 degrees) at 10 MPH (9 knots; 4.6 m/s)
Visibility: 6 or more miles (10+ km)
Ceiling: at least 12,000 feet AGL
Clouds: few clouds at 2700 feet AGL
Weather: no significant weather observed at this time

METAR text: MZBZ 231600Z 07009KT 9999 SCT026 28/19 A3010 Q1019 NOSIG
Conditions at: MZBZ (BELIZE INTL , BZ) observed 1600 UTC 23 March 2019
Temperature: 28.0°C (82°F)
Dewpoint: 19.0°C (66°F) [RH = 58%]
Pressure (altimeter): 30.09 inches Hg (1019.0 mb)
Winds: from the ENE (70 degrees) at 10 MPH (9 knots; 4.6 m/s)
Visibility: 6 or more miles (10+ km)
Ceiling: at least 12,000 feet AGL
Clouds: scattered clouds at 2600 feet AGL
Weather: no significant weather observed at this time

METAR text: MZBZ 231500Z 08006KT 9999 SCT025 28/19 A3009 Q1019 NOSIG
Conditions at: MZBZ (BELIZE INTL , BZ) observed 1500 UTC 23 March 2019
Temperature: 28.0°C (82°F)
Dewpoint: 19.0°C (66°F) [RH = 58%]
Pressure (altimeter): 30.09 inches Hg (1019.0 mb)
Winds: from the E (80 degrees) at 7 MPH (6 knots; 3.1 m/s)
Visibility: 6 or more miles (10+ km)
Ceiling: at least 12,000 feet AGL
Clouds: scattered clouds at 2500 feet AGL
Weather: no significant weather observed at this time

METAR text: MZBZ 231400Z 00000KT 9999 SCT023 25/21 A3007 Q1018 NOSIG
Conditions at: MZBZ (BELIZE INTL , BZ) observed 1400 UTC 23 March 2019
Temperature: 25.0°C (77°F)
Dewpoint: 21.0°C (70°F) [RH = 79%]
Pressure (altimeter): 30.06 inches Hg (1018.0 mb)
Winds: calm
Visibility: 6 or more miles (10+ km)
Ceiling: at least 12,000 feet AGL
Clouds: scattered clouds at 2300 feet AGL
Weather: no significant weather observed at this time

METAR text: MZBZ 231300Z 12003KT 9999 SCT022 23/19 A3005 Q1017 NOSIG
Conditions at: MZBZ (BELIZE INTL , BZ) observed 1300 UTC 23 March 2019
Temperature: 23.0°C (73°F)
Dewpoint: 19.0°C (66°F) [RH = 78%]
Pressure (altimeter): 30.03 inches Hg (1017.0 mb)
Winds: from the ESE (120 degrees) at 3 MPH (3 knots; 1.5 m/s)
Visibility: 6 or more miles (10+ km)
Ceiling: at least 12,000 feet AGL
Clouds: scattered clouds at 2200 feet AGL
Weather: no significant weather observed at this time

METAR text: MZBZ 231200Z 00000KT 9999 SCT020 21/19 A3003 Q1017 NOSIG
Conditions at: MZBZ (BELIZE INTL , BZ) observed 1200 UTC 23 March 2019
Temperature: 21.0°C (70°F)
Dewpoint: 19.0°C (66°F) [RH = 88%]
Pressure (altimeter): 30.03 inches Hg (1017.0 mb)
Winds: calm
Visibility: 6 or more miles (10+ km)
Ceiling: at least 12,000 feet AGL
Clouds: scattered clouds at 2000 feet AGL
Weather: no significant weather observed at this time

METAR text: MZBZ 231100Z 11002KT 9999 FEW020 21/19 A3001 Q1016 NOSIG
Conditions at: MZBZ (BELIZE INTL , BZ) observed 1100 UTC 23 March 2019
Temperature: 21.0°C (70°F)
Dewpoint: 19.0°C (66°F) [RH = 88%]
Pressure (altimeter): 30.00 inches Hg (1016.0 mb)
Winds: from the ESE (110 degrees) at 2 MPH (2 knots; 1.0 m/s)
Visibility: 6 or more miles (10+ km)
Ceiling: at least 12,000 feet AGL
Clouds: few clouds at 2000 feet AGL
Weather: no significant weather observed at this time

METAR text: MZBZ 230100Z 11003KT 9999 FEW023 25/20 A3002 Q1016 NOSIG
Conditions at: MZBZ (BELIZE INTL , BZ) observed 0100 UTC 23 March 2019
Temperature: 25.0°C (77°F)
Dewpoint: 20.0°C (68°F) [RH = 74%]
Pressure (altimeter): 30.00 inches Hg (1016.0 mb)
Winds: from the ESE (110 degrees) at 3 MPH (3 knots; 1.5 m/s)
Visibility: 6 or more miles (10+ km)
Ceiling: at least 12,000 feet AGL
Clouds: few clouds at 2300 feet AGL
Weather: no significant weather observed at this time

METAR text: MZBZ 230000Z 10006KT 9999 FEW024 26/20 A3000 Q1016 NOSIG
Conditions at: MZBZ (BELIZE INTL , BZ) observed 0000 UTC 23 March 2019
Temperature: 26.0°C (79°F)
Dewpoint: 20.0°C (68°F) [RH = 70%]
Pressure (altimeter): 30.00 inches Hg (1016.0 mb)
Winds: from the E (100 degrees) at 7 MPH (6 knots; 3.1 m/s)
Visibility: 6 or more miles (10+ km)
Ceiling: at least 12,000 feet AGL
Clouds: few clouds at 2400 feet AGL
Weather: no significant weather observed at this time

METAR text: MZBZ 222300Z 10006KT 9999 FEW026 27/21 A3000 Q1016 NOSIG
Conditions at: MZBZ (BELIZE INTL , BZ) observed 2300 UTC 22 March 2019
Temperature: 27.0°C (81°F)
Dewpoint: 21.0°C (70°F) [RH = 70%]
Pressure (altimeter): 30.00 inches Hg (1016.0 mb)
Winds: from the E (100 degrees) at 7 MPH (6 knots; 3.1 m/s)
Visibility: 6 or more miles (10+ km)
Ceiling: at least 12,000 feet AGL
Clouds: few clouds at 2600 feet AGL
Weather: no significant weather observed at this time

METAR text: MZBZ 222200Z 08008KT 9999 FEW027 28/21 A2999 Q1015 NOSIG
Conditions at: MZBZ (BELIZE INTL , BZ) observed 2200 UTC 22 March 2019
Temperature: 28.0°C (82°F)
Dewpoint: 21.0°C (70°F) [RH = 66%]
Pressure (altimeter): 29.97 inches Hg (1015.0 mb)
Winds: from the E (80 degrees) at 9 MPH (8 knots; 4.1 m/s)
Visibility: 6 or more miles (10+ km)
Ceiling: at least 12,000 feet AGL
Clouds: few clouds at 2700 feet AGL
Weather: no significant weather observed at this time

METAR text: MZBZ 222100Z 08008KT 9999 FEW028 28/21 A3000 Q1016 NOSIG
Conditions at: MZBZ (BELIZE INTL , BZ) observed 2100 UTC 22 March 2019
Temperature: 28.0°C (82°F)
Dewpoint: 21.0°C (70°F) [RH = 66%]
Pressure (altimeter): 30.00 inches Hg (1016.0 mb)
Winds: from the E (80 degrees) at 9 MPH (8 knots; 4.1 m/s)
Visibility: 6 or more miles (10+ km)
Ceiling: at least 12,000 feet AGL
Clouds: few clouds at 2800 feet AGL
Weather: no significant weather observed at this time

METAR text: MZBZ 222000Z 08008KT 9999 FEW028 29/20 A3002 Q1016 NOSIG
Conditions at: MZBZ (BELIZE INTL , BZ) observed 2000 UTC 22 March 2019
Temperature: 29.0°C (84°F)
Dewpoint: 20.0°C (68°F) [RH = 58%]
Pressure (altimeter): 30.00 inches Hg (1016.0 mb)
Winds: from the E (80 degrees) at 9 MPH (8 knots; 4.1 m/s)
Visibility: 6 or more miles (10+ km)
Ceiling: at least 12,000 feet AGL
Clouds: few clouds at 2800 feet AGL
Weather: no significant weather observed at this time

METAR text: MZBZ 221900Z 07009KT 9999 FEW026 28/21 A3004 Q1017 NOSIG
Conditions at: MZBZ (BELIZE INTL , BZ) observed 1900 UTC 22 March 2019
Temperature: 28.0°C (82°F)
Dewpoint: 21.0°C (70°F) [RH = 66%]
Pressure (altimeter): 30.03 inches Hg (1017.0 mb)
Winds: from the ENE (70 degrees) at 10 MPH (9 knots; 4.6 m/s)
Visibility: 6 or more miles (10+ km)
Ceiling: at least 12,000 feet AGL
Clouds: few clouds at 2600 feet AGL
Weather: no significant weather observed at this time

METAR text: MZBZ 221800Z 06007KT 9999 FEW025 27/21 A3007 Q1018 NOSIG
Conditions at: MZBZ (BELIZE INTL , BZ) observed 1800 UTC 22 March 2019
Temperature: 27.0°C (81°F)
Dewpoint: 21.0°C (70°F) [RH = 70%]
Pressure (altimeter): 30.06 inches Hg (1018.0 mb)
Winds: from the ENE (60 degrees) at 8 MPH (7 knots; 3.6 m/s)
Visibility: 6 or more miles (10+ km)
Ceiling: at least 12,000 feet AGL
Clouds: few clouds at 2500 feet AGL
Weather: no significant weather observed at this time

METAR text: MZBZ 221700Z 05009KT 9999 SCT025 BKN045 27/21 A3010 Q1019 NOSIG
Conditions at: MZBZ (BELIZE INTL , BZ) observed 1700 UTC 22 March 2019
Temperature: 27.0°C (81°F)
Dewpoint: 21.0°C (70°F) [RH = 70%]
Pressure (altimeter): 30.09 inches Hg (1019.0 mb)
Winds: from the NE (50 degrees) at 10 MPH (9 knots; 4.6 m/s)
Visibility: 6 or more miles (10+ km)
Ceiling: 4500 feet AGL
Clouds: scattered clouds at 2500 feet AGL
broken clouds at 4500 feet AGL
Weather: no significant weather observed at this time

METAR text: MZBZ 221600Z 04009KT 9999 FEW025 BKN045 27/21 A3011 Q1019 NOSIG
Conditions at: MZBZ (BELIZE INTL , BZ) observed 1600 UTC 22 March 2019
Temperature: 27.0°C (81°F)
Dewpoint: 21.0°C (70°F) [RH = 70%]
Pressure (altimeter): 30.09 inches Hg (1019.0 mb)
Winds: from the NE (40 degrees) at 10 MPH (9 knots; 4.6 m/s)
Visibility: 6 or more miles (10+ km)
Ceiling: 4500 feet AGL
Clouds: few clouds at 2500 feet AGL
broken clouds at 4500 feet AGL
Weather: no significant weather observed at this time

METAR text: MZBZ 221500Z 02009KT 9999 SCT024 BKN045 25/21 A3011 Q1019 NOSIG
Conditions at: MZBZ (BELIZE INTL , BZ) observed 1500 UTC 22 March 2019
Temperature: 25.0°C (77°F)
Dewpoint: 21.0°C (70°F) [RH = 79%]
Pressure (altimeter): 30.09 inches Hg (1019.0 mb)
Winds: from the NNE (20 degrees) at 10 MPH (9 knots; 4.6 m/s)
Visibility: 6 or more miles (10+ km)
Ceiling: 4500 feet AGL
Clouds: scattered clouds at 2400 feet AGL
broken clouds at 4500 feet AGL
Weather: no significant weather observed at this time

METAR text: MZBZ 221400Z 01010KT 9999 FEW024 BKN048 24/20 A3010 Q1019 NOSIG
Conditions at: MZBZ (BELIZE INTL , BZ) observed 1400 UTC 22 March 2019
Temperature: 24.0°C (75°F)
Dewpoint: 20.0°C (68°F) [RH = 78%]
Pressure (altimeter): 30.09 inches Hg (1019.0 mb)
Winds: from the N (10 degrees) at 12 MPH (10 knots; 5.1 m/s)
Visibility: 6 or more miles (10+ km)
Ceiling: 4800 feet AGL
Clouds: few clouds at 2400 feet AGL
broken clouds at 4800 feet AGL
Weather: no significant weather observed at this time

METAR text: MZBZ 221300Z 01010KT 9999 FEW024 BKN048 22/19 A3008 Q1018 NOSIG
Conditions at: MZBZ (BELIZE INTL , BZ) observed 1300 UTC 22 March 2019
Temperature: 22.0°C (72°F)
Dewpoint: 19.0°C (66°F) [RH = 83%]
Pressure (altimeter): 30.06 inches Hg (1018.0 mb)
Winds: from the N (10 degrees) at 12 MPH (10 knots; 5.1 m/s)
Visibility: 6 or more miles (10+ km)
Ceiling: 4800 feet AGL
Clouds: few clouds at 2400 feet AGL
broken clouds at 4800 feet AGL
Weather: no significant weather observed at this time

METAR text: MZBZ 221200Z 00000KT 9999 FEW023 21/20 A3005 Q1017 NOSIG
Conditions at: MZBZ (BELIZE INTL , BZ) observed 1200 UTC 22 March 2019
Temperature: 21.0°C (70°F)
Dewpoint: 20.0°C (68°F) [RH = 94%]
Pressure (altimeter): 30.03 inches Hg (1017.0 mb)
Winds: calm
Visibility: 6 or more miles (10+ km)
Ceiling: at least 12,000 feet AGL
Clouds: few clouds at 2300 feet AGL
Weather: no significant weather observed at this time

Forecast for: MZBZ (BELIZE INTL , BZ)
Text: TAF MZBZ 232100Z 2400/2424 07007KT 9999 SCT024
Forecast period: 0000 UTC 24 March 2019 to 0000 UTC 25 March 2019
Forecast type: FROM: standard forecast or significant change
Winds: from the ENE (70 degrees) at 8 MPH (7 knots; 3.6 m/s)
Visibility: 6 or more miles 10+ km)
Ceiling: at least 12,000 feet AGL
Clouds: scattered clouds at 2400 feet AGL
Weather: no significant weather forecast for this period